Colombres, Argentina
Current Conditions -  °F | °C
As of 7:00 PM on Tuesday 25 Nov 2014 (Local Time) from SANT Reporting Station
Clear Clear  
Wind Chill: 22°   Ceiling: Unl
Heat Index: 22°   Visibility: 6mi
Dew Point: 16°   Wind: 5mph
Humidity: 69%   Direction: 180°S
Pressure: 29.83"   Gusts: NA
Location:  27.03°S, 65.17°W
Report Text: SANT 252200Z 18004KT CAVOK 22/16 Q1010
Loading
Personal Weather Stations






























Interactive Weather Map New forecast layout! Learn more

10-Day Weather Forecast

Advertisements
Track Severe Weather on mobile